TFM - Tactical Decision Aid
ID: Runway Winds: CIG/VIS Threshold:

KPDX - Portland Intl Arpt, OR, US

Updated at: 1212 UTC 15 Jul 2020
Latest TAF at: 1132 UTC 15 Jul 2020

TAF Board

Time1153Z 15/13Z 15/14Z 15/15Z 15/16Z 15/17Z 15/18Z 15/19Z 15/20Z 15/21Z 15/22Z 15/23Z 16/00Z 16/01Z>>
Type OBS PRVL PRVL PRVL PRVL PRVL PRVL PRVL PRVL PRVL PRVL PRVL PRVL PRVL
VIS 10 >6 >6 >6 >6 >6 >6 >6 >6 >6 >6 >6 >6 >6
CIG -- -- -- -- -- -- -- -- -- -- -- -- -- --
Cover FEW SKC SKC SKC SKC SKC SKC SKC SKC SKC SKC SKC SKC SKC
FltCat VFR VFR VFR VFR VFR VFR VFR VFR VFR VFR VFR VFR VFR VFR
WX -- -- -- -- -- -- -- -- -- -- -- -- -- --
WDir VRB 340 340 340 340 320 320 320 320 320 330 330 330 330
WSpd 0 5 5 5 5 8 8 8 8 8 11 11 11 11
WGst -- -- -- -- -- -- -- -- -- -- 18 18 18 18

TDA Impact Legend

  None Marginal Slight Moderate High
Visibility (sm) >5 3≤X≤5 2≤X<3 0.5≤X<2 <0.5
Ceiling (100 ft) >30 10≤X≤30 9≤X<10 2≤X<9 <2
Wind Speed (kt) <15 15≤X<25 25≤X<30 ≥30
Wind Gust (kt) <15 15≤X<25 25≤X<35 ≥35
Weather No Wx Reported VCTS -TS,-FZRA TS,FZRA +TS,+FZRA
TAF
KPDX 151132Z 1512/1612 34005KT P6SM SKC
  FM151700 32008KT P6SM SKC
  FM152200 33011G18KT P6SM SKC
  FM160400 32008KT P6SM SCT100


METAR
KPDX 151153Z 00000KT 10SM FEW200 17/11 A3009 RMK AO2 SLP189 T01720106 10217 20172 53003
KPDX 151053Z 36004KT 10SM CLR 18/11 A3009 RMK AO2 SLP188 T01780111
KPDX 150953Z 34005KT 10SM CLR 18/11 A3009 RMK AO2 SLP186 T01830111
KPDX 150853Z 32006KT 10SM CLR 18/11 A3009 RMK AO2 SLP186 T01830111 51004

Radar Display
Forecast Discussion